« Back
NWS Peachtree City, Ga » Text Product » ATL Terminal Aerodrome Forecast


Printer-friendly Version
Current Version              Previous Versions:   1  2  3  4  5  6  7  8  9  

Terminal Aerodrome Forecast

477
FTUS42 KFFC 231500 AAB
TAFATL
TAF AMD
KATL 231545Z 2316/2418 30005KT P6SM FEW250
     FM240100 32003KT P6SM BKN200
     FM241600 30006KT P6SM SKC=



USA.gov is the U.S. government's official web portal to all federal, state and local government web resources and services.